sensor_id;sensor_type;location;lat;lon;timestamp;pressure;altitude;pressure_sealevel;temperature;humidity
68329;BME280;55182;56.864;60.554;2022-08-06T00:01:43;99129.22;;;14.44;100.00
68329;BME280;55182;56.864;60.554;2022-08-06T00:04:08;99124.81;;;14.40;100.00
68329;BME280;55182;56.864;60.554;2022-08-06T00:06:34;99133.63;;;14.41;100.00
68329;BME280;55182;56.864;60.554;2022-08-06T00:08:59;99129.22;;;14.38;100.00
68329;BME280;55182;56.864;60.554;2022-08-06T00:11:25;99135.38;;;14.45;100.00
68329;BME280;55182;56.864;60.554;2022-08-06T00:13:50;99138.97;;;14.54;100.00
68329;BME280;55182;56.864;60.554;2022-08-06T00:16:16;99136.34;;;14.65;100.00
68329;BME280;55182;56.864;60.554;2022-08-06T00:18:41;99136.31;;;14.74;99.42
68329;BME280;55182;56.864;60.554;2022-08-06T00:21:06;99132.81;;;14.78;98.81
68329;BME280;55182;56.864;60.554;2022-08-06T00:23:32;99132.81;;;14.78;97.40
68329;BME280;55182;56.864;60.554;2022-08-06T00:25:57;99131.06;;;14.83;96.93
68329;BME280;55182;56.864;60.554;2022-08-06T00:28:23;99143.38;;;14.86;97.65
68329;BME280;55182;56.864;60.554;2022-08-06T00:30:49;99138.09;;;14.81;96.26
68329;BME280;55182;56.864;60.554;2022-08-06T00:33:15;99140.72;;;14.80;97.09
68329;BME280;55182;56.864;60.554;2022-08-06T00:35:40;99138.09;;;14.78;96.19
68329;BME280;55182;56.864;60.554;2022-08-06T00:38:05;99138.09;;;14.83;95.05
68329;BME280;55182;56.864;60.554;2022-08-06T00:40:31;99133.69;;;14.88;94.58
68329;BME280;55182;56.864;60.554;2022-08-06T00:43:00;99133.69;;;14.91;94.24
68329;BME280;55182;56.864;60.554;2022-08-06T00:45:26;99136.34;;;14.94;94.13
68329;BME280;55182;56.864;60.554;2022-08-06T00:47:52;99136.34;;;14.93;93.94
68329;BME280;55182;56.864;60.554;2022-08-06T00:50:17;99138.97;;;14.91;94.19
68329;BME280;55182;56.864;60.554;2022-08-06T00:52:42;99133.69;;;14.90;94.84
68329;BME280;55182;56.864;60.554;2022-08-06T00:55:08;99138.09;;;14.84;94.58
68329;BME280;55182;56.864;60.554;2022-08-06T00:57:33;99134.56;;;14.85;94.69
68329;BME280;55182;56.864;60.554;2022-08-06T00:59:59;99141.63;;;14.90;94.77
68329;BME280;55182;56.864;60.554;2022-08-06T01:02:24;99142.50;;;14.89;94.82
68329;BME280;55182;56.864;60.554;2022-08-06T01:04:49;99144.25;;;14.94;94.33
68329;BME280;55182;56.864;60.554;2022-08-06T01:07:15;99149.53;;;14.99;94.18
68329;BME280;55182;56.864;60.554;2022-08-06T01:09:40;99140.72;;;15.06;93.01
68329;BME280;55182;56.864;60.554;2022-08-06T01:12:06;99143.38;;;15.15;92.19
68329;BME280;55182;56.864;60.554;2022-08-06T01:14:31;99144.22;;;15.23;91.81
68329;BME280;55182;56.864;60.554;2022-08-06T01:16:57;99137.16;;;15.30;91.61
68329;BME280;55182;56.864;60.554;2022-08-06T01:19:30;99145.09;;;15.37;91.92
68329;BME280;55182;56.864;60.554;2022-08-06T01:22:09;99145.97;;;15.44;91.32
68329;BME280;55182;56.864;60.554;2022-08-06T01:24:47;99143.31;;;15.46;91.12
68329;BME280;55182;56.864;60.554;2022-08-06T01:29:46;99143.28;;;15.53;91.23
68329;BME280;55182;56.864;60.554;2022-08-06T01:32:14;99148.59;;;15.55;91.37
68329;BME280;55182;56.864;60.554;2022-08-06T01:34:42;99150.31;;;15.59;91.02
68329;BME280;55182;56.864;60.554;2022-08-06T01:37:13;99153.84;;;15.61;90.23
68329;BME280;55182;56.864;60.554;2022-08-06T01:39:40;99152.97;;;15.63;90.63
68329;BME280;55182;56.864;60.554;2022-08-06T01:42:07;99150.34;;;15.68;90.46
68329;BME280;55182;56.864;60.554;2022-08-06T01:44:36;99153.84;;;15.70;90.94
68329;BME280;55182;56.864;60.554;2022-08-06T01:47:07;99153.84;;;15.73;90.48
68329;BME280;55182;56.864;60.554;2022-08-06T01:49:33;99146.78;;;15.75;90.71
68329;BME280;55182;56.864;60.554;2022-08-06T01:52:01;99152.97;;;15.77;90.69
68329;BME280;55182;56.864;60.554;2022-08-06T01:54:28;99153.81;;;15.79;91.12
68329;BME280;55182;56.864;60.554;2022-08-06T01:56:54;99158.19;;;15.82;89.65
68329;BME280;55182;56.864;60.554;2022-08-06T01:59:21;99159.97;;;15.86;89.77
68329;BME280;55182;56.864;60.554;2022-08-06T02:01:49;99148.50;;;15.88;89.51
68329;BME280;55182;56.864;60.554;2022-08-06T02:04:16;99149.34;;;15.94;89.21
68329;BME280;55182;56.864;60.554;2022-08-06T02:06:44;99152.84;;;15.99;88.94
68329;BME280;55182;56.864;60.554;2022-08-06T02:09:18;99151.97;;;16.03;88.88
68329;BME280;55182;56.864;60.554;2022-08-06T02:11:47;99156.34;;;16.07;88.63
68329;BME280;55182;56.864;60.554;2022-08-06T02:14:13;99159.84;;;16.13;88.12
68329;BME280;55182;56.864;60.554;2022-08-06T02:16:41;99151.00;;;16.19;88.02
68329;BME280;55182;56.864;60.554;2022-08-06T02:19:07;99155.41;;;16.23;88.02
68329;BME280;55182;56.864;60.554;2022-08-06T02:21:34;99155.38;;;16.29;86.95
68329;BME280;55182;56.864;60.554;2022-08-06T02:24:02;99157.94;;;16.38;87.13
68329;BME280;55182;56.864;60.554;2022-08-06T02:26:29;99150.88;;;16.42;87.11
68329;BME280;55182;56.864;60.554;2022-08-06T02:28:56;99160.53;;;16.48;87.36
68329;BME280;55182;56.864;60.554;2022-08-06T02:31:23;99149.94;;;16.51;87.58
68329;BME280;55182;56.864;60.554;2022-08-06T02:33:49;99157.88;;;16.49;87.11
68329;BME280;55182;56.864;60.554;2022-08-06T02:36:16;99160.53;;;16.51;87.36
68329;BME280;55182;56.864;60.554;2022-08-06T02:41:15;99167.53;;;16.58;86.54
68329;BME280;55182;56.864;60.554;2022-08-06T02:43:43;99155.16;;;16.63;85.97
68329;BME280;55182;56.864;60.554;2022-08-06T02:46:12;99148.06;;;16.71;86.50
68329;BME280;55182;56.864;60.554;2022-08-06T02:48:40;99148.06;;;16.71;87.40
68329;BME280;55182;56.864;60.554;2022-08-06T02:51:11;99151.56;;;16.73;85.55
68329;BME280;55182;56.864;60.554;2022-08-06T02:56:22;99154.09;;;16.88;85.17
68329;BME280;55182;56.864;60.554;2022-08-06T02:58:48;99152.28;;;16.97;85.00
68329;BME280;55182;56.864;60.554;2022-08-06T03:01:20;99148.69;;;17.04;85.29
68329;BME280;55182;56.864;60.554;2022-08-06T03:03:46;99150.38;;;17.14;85.38
68329;BME280;55182;56.864;60.554;2022-08-06T03:06:14;99152.91;;;17.23;84.69
68329;BME280;55182;56.864;60.554;2022-08-06T03:08:40;99151.03;;;17.34;84.52
68329;BME280;55182;56.864;60.554;2022-08-06T03:11:06;99151.78;;;17.48;83.89
68329;BME280;55182;56.864;60.554;2022-08-06T03:13:33;99154.31;;;17.58;83.58
68329;BME280;55182;56.864;60.554;2022-08-06T03:15:59;99157.81;;;17.63;83.98
68329;BME280;55182;56.864;60.554;2022-08-06T03:18:26;99159.56;;;17.64;82.93
68329;BME280;55182;56.864;60.554;2022-08-06T03:20:51;99156.84;;;17.71;82.58
68329;BME280;55182;56.864;60.554;2022-08-06T03:23:17;99161.19;;;17.80;82.63
68329;BME280;55182;56.864;60.554;2022-08-06T03:25:43;99149.59;;;17.89;81.52
68329;BME280;55182;56.864;60.554;2022-08-06T03:28:11;99158.31;;;17.97;81.30
68329;BME280;55182;56.864;60.554;2022-08-06T03:30:36;99152.97;;;18.01;81.35
68329;BME280;55182;56.864;60.554;2022-08-06T03:33:04;99155.47;;;18.14;80.12
68329;BME280;55182;56.864;60.554;2022-08-06T03:35:30;99160.59;;;18.26;79.59
68329;BME280;55182;56.864;60.554;2022-08-06T03:37:57;99162.22;;;18.39;78.72
68329;BME280;55182;56.864;60.554;2022-08-06T03:40:23;99157.63;;;18.49;79.29
68329;BME280;55182;56.864;60.554;2022-08-06T03:42:49;99157.53;;;18.57;77.93
68329;BME280;55182;56.864;60.554;2022-08-06T03:45:15;99147.50;;;18.77;78.59
68329;BME280;55182;56.864;60.554;2022-08-06T03:47:41;99152.66;;;18.89;77.30
68329;BME280;55182;56.864;60.554;2022-08-06T03:50:09;99160.50;;;18.95;77.51
68329;BME280;55182;56.864;60.554;2022-08-06T03:52:45;99162.09;;;19.07;75.47
68329;BME280;55182;56.864;60.554;2022-08-06T03:55:16;99159.16;;;19.24;75.15
68329;BME280;55182;56.864;60.554;2022-08-06T03:57:46;99168.66;;;19.37;75.29
68329;BME280;55182;56.864;60.554;2022-08-06T04:00:13;99165.66;;;19.55;74.73
68329;BME280;55182;56.864;60.554;2022-08-06T04:02:41;99162.78;;;19.69;74.39
68329;BME280;55182;56.864;60.554;2022-08-06T04:05:07;99165.22;;;19.80;73.45
68329;BME280;55182;56.864;60.554;2022-08-06T04:07:35;99175.59;;;19.94;72.29
68329;BME280;55182;56.864;60.554;2022-08-06T04:10:00;99170.09;;;20.01;72.00
68329;BME280;55182;56.864;60.554;2022-08-06T04:12:27;99166.28;;;20.15;67.95
68329;BME280;55182;56.864;60.554;2022-08-06T04:14:53;99164.06;;;20.35;68.58
68329;BME280;55182;56.864;60.554;2022-08-06T04:17:19;99157.31;;;20.60;65.80
68329;BME280;55182;56.864;60.554;2022-08-06T04:19:46;99160.47;;;20.78;65.61
68329;BME280;55182;56.864;60.554;2022-08-06T04:22:12;99160.16;;;20.90;65.67
68329;BME280;55182;56.864;60.554;2022-08-06T04:24:38;99151.03;;;20.99;65.54
68329;BME280;55182;56.864;60.554;2022-08-06T04:27:04;99156.25;;;21.05;65.14
68329;BME280;55182;56.864;60.554;2022-08-06T04:29:30;99155.28;;;21.07;64.97
68329;BME280;55182;56.864;60.554;2022-08-06T04:31:58;99152.50;;;21.12;65.39
68329;BME280;55182;56.864;60.554;2022-08-06T04:34:24;99149.75;;;21.15;65.14
68329;BME280;55182;56.864;60.554;2022-08-06T04:36:51;99151.44;;;21.19;65.24
68329;BME280;55182;56.864;60.554;2022-08-06T04:39:18;99152.16;;;21.26;64.74
68329;BME280;55182;56.864;60.554;2022-08-06T04:41:43;99149.34;;;21.32;64.99
68329;BME280;55182;56.864;60.554;2022-08-06T04:44:09;99148.38;;;21.36;64.72
68329;BME280;55182;56.864;60.554;2022-08-06T04:46:35;99147.25;;;21.45;62.67
68329;BME280;55182;56.864;60.554;2022-08-06T04:49:00;99146.88;;;21.58;62.22
68329;BME280;55182;56.864;60.554;2022-08-06T04:51:25;99151.81;;;21.74;63.03
68329;BME280;55182;56.864;60.554;2022-08-06T04:53:51;99148.78;;;21.86;63.60
68329;BME280;55182;56.864;60.554;2022-08-06T04:56:16;99151.16;;;21.96;62.01
68329;BME280;55182;56.864;60.554;2022-08-06T04:58:42;99152.84;;;21.99;64.44
68329;BME280;55182;56.864;60.554;2022-08-06T05:01:07;99152.75;;;22.02;65.82
68329;BME280;55182;56.864;60.554;2022-08-06T05:03:33;99152.66;;;22.05;65.37
68329;BME280;55182;56.864;60.554;2022-08-06T05:06:03;99141.06;;;22.06;65.33
68329;BME280;55182;56.864;60.554;2022-08-06T05:08:31;99143.72;;;22.06;63.74
68329;BME280;55182;56.864;60.554;2022-08-06T05:11:02;99147.88;;;22.18;64.41
68329;BME280;55182;56.864;60.554;2022-08-06T05:13:33;99143.31;;;22.21;63.77
68329;BME280;55182;56.864;60.554;2022-08-06T05:15:59;99136.97;;;22.26;63.38
68329;BME280;55182;56.864;60.554;2022-08-06T05:18:28;99142.19;;;22.30;63.26
68329;BME280;55182;56.864;60.554;2022-08-06T05:20:55;99140.25;;;22.35;63.31
68329;BME280;55182;56.864;60.554;2022-08-06T05:23:24;99139.06;;;22.44;60.94
68329;BME280;55182;56.864;60.554;2022-08-06T05:25:49;99135.19;;;22.54;59.62
68329;BME280;55182;56.864;60.554;2022-08-06T05:28:15;99145.28;;;22.72;60.00
68329;BME280;55182;56.864;60.554;2022-08-06T05:30:41;99144.16;;;22.80;59.84
68329;BME280;55182;56.864;60.554;2022-08-06T05:33:07;99144.91;;;22.85;58.35
68329;BME280;55182;56.864;60.554;2022-08-06T05:35:32;99138.56;;;22.89;57.76
68329;BME280;55182;56.864;60.554;2022-08-06T05:37:58;99131.13;;;22.98;57.07
68329;BME280;55182;56.864;60.554;2022-08-06T05:40:23;99122.75;;;23.09;57.22
68329;BME280;55182;56.864;60.554;2022-08-06T05:42:49;99133.88;;;23.22;56.30
68329;BME280;55182;56.864;60.554;2022-08-06T05:45:14;99134.56;;;23.28;54.98
68329;BME280;55182;56.864;60.554;2022-08-06T05:47:41;99137.81;;;23.37;54.43
68329;BME280;55182;56.864;60.554;2022-08-06T05:50:08;99136.72;;;23.42;54.53
68329;BME280;55182;56.864;60.554;2022-08-06T05:52:42;99138.38;;;23.46;53.87
68329;BME280;55182;56.864;60.554;2022-08-06T05:55:18;99130.13;;;23.52;53.94
68329;BME280;55182;56.864;60.554;2022-08-06T05:57:47;99126.94;;;23.68;53.64
68329;BME280;55182;56.864;60.554;2022-08-06T06:00:16;99128.31;;;23.79;53.74
68329;BME280;55182;56.864;60.554;2022-08-06T06:02:43;99123.72;;;23.83;53.45
68329;BME280;55182;56.864;60.554;2022-08-06T06:05:10;99140.53;;;23.87;53.73
68329;BME280;55182;56.864;60.554;2022-08-06T06:07:36;99125.31;;;23.89;52.76
68329;BME280;55182;56.864;60.554;2022-08-06T06:10:02;99126.91;;;23.93;52.94
68329;BME280;55182;56.864;60.554;2022-08-06T06:12:29;99131.16;;;23.98;53.07
68329;BME280;55182;56.864;60.554;2022-08-06T06:14:54;99123.84;;;24.03;53.15
68329;BME280;55182;56.864;60.554;2022-08-06T06:20:10;99119.19;;;24.09;52.98
68329;BME280;55182;56.864;60.554;2022-08-06T06:22:41;99126.09;;;24.14;52.57
68329;BME280;55182;56.864;60.554;2022-08-06T06:30:18;99111.97;;;24.34;52.10
68329;BME280;55182;56.864;60.554;2022-08-06T06:38:02;99097.09;;;24.49;51.49
68329;BME280;55182;56.864;60.554;2022-08-06T06:45:30;99095.72;;;24.61;52.61
68329;BME280;55182;56.864;60.554;2022-08-06T06:48:00;99086.44;;;24.69;51.67
68329;BME280;55182;56.864;60.554;2022-08-06T06:50:28;99093.44;;;24.73;51.28
68329;BME280;55182;56.864;60.554;2022-08-06T06:52:55;99095.03;;;24.77;50.72
68329;BME280;55182;56.864;60.554;2022-08-06T06:57:53;99088.25;;;24.91;49.61
68329;BME280;55182;56.864;60.554;2022-08-06T07:00:20;99094.03;;;25.02;49.81
68329;BME280;55182;56.864;60.554;2022-08-06T07:02:46;99086.44;;;25.13;49.26
68329;BME280;55182;56.864;60.554;2022-08-06T07:05:12;99095.13;;;25.18;49.66
68329;BME280;55182;56.864;60.554;2022-08-06T07:07:39;99080.84;;;25.18;48.67
68329;BME280;55182;56.864;60.554;2022-08-06T07:10:05;99087.28;;;25.14;49.13
68329;BME280;55182;56.864;60.554;2022-08-06T07:12:33;99096.13;;;25.16;49.12
68329;BME280;55182;56.864;60.554;2022-08-06T07:14:59;99090.66;;;25.19;48.65
68329;BME280;55182;56.864;60.554;2022-08-06T07:17:25;99078.03;;;25.21;46.07
68329;BME280;55182;56.864;60.554;2022-08-06T07:19:53;99090.25;;;25.28;46.66
68329;BME280;55182;56.864;60.554;2022-08-06T07:22:19;99085.34;;;25.37;45.74
68329;BME280;55182;56.864;60.554;2022-08-06T07:24:45;99072.19;;;25.52;44.16
68329;BME280;55182;56.864;60.554;2022-08-06T07:27:11;99071.38;;;25.70;44.84
68329;BME280;55182;56.864;60.554;2022-08-06T07:29:37;99084.84;;;25.89;43.05
68329;BME280;55182;56.864;60.554;2022-08-06T07:32:04;99077.66;;;26.08;42.81
68329;BME280;55182;56.864;60.554;2022-08-06T07:34:32;99078.84;;;26.22;42.45
68329;BME280;55182;56.864;60.554;2022-08-06T07:36:58;99070.78;;;26.22;42.58
68329;BME280;55182;56.864;60.554;2022-08-06T07:39:27;99077.03;;;26.22;42.95
68329;BME280;55182;56.864;60.554;2022-08-06T07:41:53;99080.59;;;26.23;43.38
68329;BME280;55182;56.864;60.554;2022-08-06T07:44:20;99071.59;;;26.05;43.68
68329;BME280;55182;56.864;60.554;2022-08-06T07:46:47;99072.88;;;25.96;44.26
68329;BME280;55182;56.864;60.554;2022-08-06T07:49:13;99070.47;;;25.90;44.08
68329;BME280;55182;56.864;60.554;2022-08-06T07:51:40;99069.84;;;26.04;44.85
68329;BME280;55182;56.864;60.554;2022-08-06T07:54:07;99067.38;;;26.18;44.12
68329;BME280;55182;56.864;60.554;2022-08-06T07:56:34;99065.53;;;26.37;44.31
68329;BME280;55182;56.864;60.554;2022-08-06T07:59:00;99059.53;;;26.51;42.91
68329;BME280;55182;56.864;60.554;2022-08-06T08:01:27;99078.59;;;26.64;41.38
68329;BME280;55182;56.864;60.554;2022-08-06T08:03:52;99062.38;;;26.65;40.00
68329;BME280;55182;56.864;60.554;2022-08-06T08:06:18;99064.16;;;26.66;40.79
68329;BME280;55182;56.864;60.554;2022-08-06T08:08:45;99068.94;;;26.60;39.65
68329;BME280;55182;56.864;60.554;2022-08-06T08:11:11;99070.28;;;26.51;40.46
68329;BME280;55182;56.864;60.554;2022-08-06T08:13:37;99059.38;;;26.35;41.16
68329;BME280;55182;56.864;60.554;2022-08-06T08:16:03;99060.09;;;26.39;41.14
68329;BME280;55182;56.864;60.554;2022-08-06T08:18:29;99062.44;;;26.47;41.08
68329;BME280;55182;56.864;60.554;2022-08-06T08:20:55;99055.78;;;26.54;40.41
68329;BME280;55182;56.864;60.554;2022-08-06T08:23:21;99060.44;;;26.69;40.11
68329;BME280;55182;56.864;60.554;2022-08-06T08:25:47;99046.34;;;26.81;39.72
68329;BME280;55182;56.864;60.554;2022-08-06T08:28:12;99049.22;;;26.95;40.18
68329;BME280;55182;56.864;60.554;2022-08-06T08:30:38;99040.16;;;27.15;40.00
68329;BME280;55182;56.864;60.554;2022-08-06T08:33:03;99045.94;;;27.25;39.38
68329;BME280;55182;56.864;60.554;2022-08-06T08:35:29;99054.31;;;27.36;39.45
68329;BME280;55182;56.864;60.554;2022-08-06T08:37:54;99037.50;;;27.48;39.26
68329;BME280;55182;56.864;60.554;2022-08-06T08:40:20;99046.13;;;27.55;38.90
68329;BME280;55182;56.864;60.554;2022-08-06T08:42:48;99044.97;;;27.43;38.90
68329;BME280;55182;56.864;60.554;2022-08-06T08:45:15;99031.72;;;27.39;38.98
68329;BME280;55182;56.864;60.554;2022-08-06T08:47:43;99033.50;;;27.23;37.67
68329;BME280;55182;56.864;60.554;2022-08-06T08:50:09;99031.34;;;26.94;38.79
68329;BME280;55182;56.864;60.554;2022-08-06T08:52:35;99044.09;;;26.91;38.94
68329;BME280;55182;56.864;60.554;2022-08-06T08:55:03;99043.91;;;26.77;38.37
68329;BME280;55182;56.864;60.554;2022-08-06T08:57:30;99035.19;;;26.72;39.63
68329;BME280;55182;56.864;60.554;2022-08-06T08:59:55;99030.38;;;26.78;37.70
68329;BME280;55182;56.864;60.554;2022-08-06T09:02:21;99018.50;;;26.82;38.73
68329;BME280;55182;56.864;60.554;2022-08-06T09:04:47;99025.97;;;26.94;37.89
68329;BME280;55182;56.864;60.554;2022-08-06T09:07:12;99028.34;;;27.01;37.65
68329;BME280;55182;56.864;60.554;2022-08-06T09:09:38;99032.78;;;27.02;38.18
68329;BME280;55182;56.864;60.554;2022-08-06T09:12:04;99026.25;;;27.06;38.44
68329;BME280;55182;56.864;60.554;2022-08-06T09:14:30;99020.84;;;27.07;38.01
68329;BME280;55182;56.864;60.554;2022-08-06T09:16:56;99010.19;;;27.04;38.78
68329;BME280;55182;56.864;60.554;2022-08-06T09:19:22;99020.22;;;27.19;38.44
68329;BME280;55182;56.864;60.554;2022-08-06T09:21:48;99014.06;;;27.33;37.84
68329;BME280;55182;56.864;60.554;2022-08-06T09:24:13;99003.59;;;27.44;37.90
68329;BME280;55182;56.864;60.554;2022-08-06T09:26:42;98998.88;;;27.65;37.40
68329;BME280;55182;56.864;60.554;2022-08-06T09:29:24;98993.66;;;27.95;36.16
68329;BME280;55182;56.864;60.554;2022-08-06T09:31:50;99004.09;;;28.17;36.48
68329;BME280;55182;56.864;60.554;2022-08-06T09:34:15;98998.47;;;28.38;36.01
68329;BME280;55182;56.864;60.554;2022-08-06T09:36:41;98998.53;;;28.52;35.35
68329;BME280;55182;56.864;60.554;2022-08-06T09:39:07;99002.94;;;28.69;34.52
68329;BME280;55182;56.864;60.554;2022-08-06T09:41:33;98998.72;;;28.79;34.68
68329;BME280;55182;56.864;60.554;2022-08-06T09:43:58;98998.81;;;28.93;35.00
68329;BME280;55182;56.864;60.554;2022-08-06T09:46:35;98996.63;;;29.00;34.82
68329;BME280;55182;56.864;60.554;2022-08-06T09:49:01;98989.19;;;29.03;35.24
68329;BME280;55182;56.864;60.554;2022-08-06T09:51:27;98982.75;;;29.06;34.71
68329;BME280;55182;56.864;60.554;2022-08-06T09:53:56;98991.94;;;29.18;34.54
68329;BME280;55182;56.864;60.554;2022-08-06T09:56:22;98992.91;;;29.31;33.86
68329;BME280;55182;56.864;60.554;2022-08-06T09:58:47;98979.19;;;29.20;34.74
68329;BME280;55182;56.864;60.554;2022-08-06T10:01:20;98975.72;;;28.58;34.78
68329;BME280;55182;56.864;60.554;2022-08-06T10:03:46;98987.41;;;28.26;35.93
68329;BME280;55182;56.864;60.554;2022-08-06T10:06:12;98984.09;;;28.06;35.69
68329;BME280;55182;56.864;60.554;2022-08-06T10:08:38;98982.34;;;27.89;37.06
68329;BME280;55182;56.864;60.554;2022-08-06T10:11:04;98984.88;;;27.76;36.38
68329;BME280;55182;56.864;60.554;2022-08-06T10:13:30;98977.78;;;27.58;35.99
68329;BME280;55182;56.864;60.554;2022-08-06T10:15:57;98970.09;;;27.50;36.53
68329;BME280;55182;56.864;60.554;2022-08-06T10:18:39;98964.34;;;27.40;36.69
68329;BME280;55182;56.864;60.554;2022-08-06T10:21:06;98977.25;;;27.34;36.84
68329;BME280;55182;56.864;60.554;2022-08-06T10:23:33;98974.56;;;27.34;37.18
68329;BME280;55182;56.864;60.554;2022-08-06T10:26:00;98972.50;;;27.39;36.91
68329;BME280;55182;56.864;60.554;2022-08-06T10:28:26;98970.44;;;27.44;35.62
68329;BME280;55182;56.864;60.554;2022-08-06T10:30:52;98966.63;;;27.48;36.10
68329;BME280;55182;56.864;60.554;2022-08-06T10:33:18;98965.41;;;27.54;37.07
68329;BME280;55182;56.864;60.554;2022-08-06T10:35:44;98957.25;;;27.55;37.46
68329;BME280;55182;56.864;60.554;2022-08-06T10:38:11;98966.56;;;27.65;37.05
68329;BME280;55182;56.864;60.554;2022-08-06T10:40:39;98967.03;;;27.73;36.73
68329;BME280;55182;56.864;60.554;2022-08-06T10:43:05;98963.31;;;27.76;36.20
68329;BME280;55182;56.864;60.554;2022-08-06T10:45:30;98962.53;;;27.74;35.74
68329;BME280;55182;56.864;60.554;2022-08-06T10:47:55;98967.94;;;27.74;34.94
68329;BME280;55182;56.864;60.554;2022-08-06T10:50:22;98969.34;;;27.64;35.26
68329;BME280;55182;56.864;60.554;2022-08-06T10:52:48;98960.03;;;27.54;34.73
68329;BME280;55182;56.864;60.554;2022-08-06T10:55:13;98963.16;;;27.46;35.01
68329;BME280;55182;56.864;60.554;2022-08-06T10:57:39;98964.16;;;27.43;35.70
68329;BME280;55182;56.864;60.554;2022-08-06T11:00:05;98954.19;;;27.45;36.07
68329;BME280;55182;56.864;60.554;2022-08-06T11:02:50;98951.19;;;27.52;35.96
68329;BME280;55182;56.864;60.554;2022-08-06T11:05:18;98955.50;;;27.54;35.64
68329;BME280;55182;56.864;60.554;2022-08-06T11:10:20;98950.19;;;27.70;35.92
68329;BME280;55182;56.864;60.554;2022-08-06T11:12:52;98930.22;;;27.74;36.53
68329;BME280;55182;56.864;60.554;2022-08-06T11:15:19;98943.03;;;27.85;36.44
68329;BME280;55182;56.864;60.554;2022-08-06T11:17:49;98946.72;;;27.99;36.44
68329;BME280;55182;56.864;60.554;2022-08-06T11:22:59;98931.06;;;28.06;35.83
68329;BME280;55182;56.864;60.554;2022-08-06T11:25:41;98936.59;;;28.19;35.62
68329;BME280;55182;56.864;60.554;2022-08-06T11:28:07;98931.44;;;28.30;34.98
68329;BME280;55182;56.864;60.554;2022-08-06T11:33:01;98941.97;;;28.19;35.03
68329;BME280;55182;56.864;60.554;2022-08-06T11:37:58;98927.56;;;28.20;35.72
68329;BME280;55182;56.864;60.554;2022-08-06T11:40:24;98929.63;;;28.31;35.25
68329;BME280;55182;56.864;60.554;2022-08-06T11:42:50;98930.19;;;28.37;35.08
68329;BME280;55182;56.864;60.554;2022-08-06T11:45:15;98928.84;;;28.44;34.74
68329;BME280;55182;56.864;60.554;2022-08-06T11:50:25;98937.84;;;28.89;33.64
68329;BME280;55182;56.864;60.554;2022-08-06T11:52:50;98942.19;;;29.65;32.22
68329;BME280;55182;56.864;60.554;2022-08-06T11:55:16;98938.28;;;30.51;31.56
68329;BME280;55182;56.864;60.554;2022-08-06T11:57:41;98931.19;;;31.16;29.80
68329;BME280;55182;56.864;60.554;2022-08-06T12:00:11;98925.66;;;31.30;30.06
68329;BME280;55182;56.864;60.554;2022-08-06T12:05:06;98927.34;;;30.80;30.47
68329;BME280;55182;56.864;60.554;2022-08-06T12:07:32;98940.50;;;31.11;30.97
68329;BME280;55182;56.864;60.554;2022-08-06T12:09:59;98934.50;;;31.70;29.79
68329;BME280;55182;56.864;60.554;2022-08-06T12:14:53;98924.63;;;32.66;27.70
68329;BME280;55182;56.864;60.554;2022-08-06T12:17:19;98911.78;;;32.57;28.42
68329;BME280;55182;56.864;60.554;2022-08-06T12:19:45;98923.09;;;31.90;30.21
68329;BME280;55182;56.864;60.554;2022-08-06T12:22:11;98926.09;;;30.98;32.08
68329;BME280;55182;56.864;60.554;2022-08-06T12:24:37;98925.09;;;30.20;33.65
68329;BME280;55182;56.864;60.554;2022-08-06T12:27:06;98917.75;;;29.66;35.34
68329;BME280;55182;56.864;60.554;2022-08-06T12:29:32;98915.25;;;29.20;36.23
68329;BME280;55182;56.864;60.554;2022-08-06T12:31:58;98917.09;;;29.34;36.17
68329;BME280;55182;56.864;60.554;2022-08-06T12:34:26;98911.41;;;29.94;35.12
68329;BME280;55182;56.864;60.554;2022-08-06T12:36:52;98916.19;;;30.45;33.44
68329;BME280;55182;56.864;60.554;2022-08-06T12:39:18;98920.44;;;30.76;32.97
68329;BME280;55182;56.864;60.554;2022-08-06T12:41:43;98926.09;;;31.11;32.31
68329;BME280;55182;56.864;60.554;2022-08-06T12:44:09;98911.59;;;31.37;32.23
68329;BME280;55182;56.864;60.554;2022-08-06T12:46:34;98912.72;;;31.72;31.69
68329;BME280;55182;56.864;60.554;2022-08-06T12:49:00;98910.19;;;31.32;32.32
68329;BME280;55182;56.864;60.554;2022-08-06T12:51:25;98909.53;;;31.28;32.34
68329;BME280;55182;56.864;60.554;2022-08-06T12:53:52;98922.06;;;31.17;32.06
68329;BME280;55182;56.864;60.554;2022-08-06T12:56:18;98914.59;;;30.95;31.59
68329;BME280;55182;56.864;60.554;2022-08-06T12:58:44;98908.47;;;30.66;32.31
68329;BME280;55182;56.864;60.554;2022-08-06T13:01:14;98904.72;;;30.41;33.93
68329;BME280;55182;56.864;60.554;2022-08-06T13:03:41;98910.03;;;30.16;34.41
68329;BME280;55182;56.864;60.554;2022-08-06T13:06:07;98913.72;;;30.00;35.38
68329;BME280;55182;56.864;60.554;2022-08-06T13:08:33;98918.22;;;29.87;36.12
68329;BME280;55182;56.864;60.554;2022-08-06T13:10:59;98908.13;;;29.62;36.04
68329;BME280;55182;56.864;60.554;2022-08-06T13:13:38;98901.47;;;29.25;37.13
68329;BME280;55182;56.864;60.554;2022-08-06T13:16:10;98917.00;;;28.77;37.92
68329;BME280;55182;56.864;60.554;2022-08-06T13:18:37;98905.91;;;28.37;39.48
68329;BME280;55182;56.864;60.554;2022-08-06T13:21:14;98905.50;;;27.97;40.72
68329;BME280;55182;56.864;60.554;2022-08-06T13:23:43;98910.34;;;27.59;41.78
68329;BME280;55182;56.864;60.554;2022-08-06T13:26:10;98917.25;;;27.32;42.66
68329;BME280;55182;56.864;60.554;2022-08-06T13:28:36;98907.38;;;27.15;43.14
68329;BME280;55182;56.864;60.554;2022-08-06T13:31:01;98916.09;;;27.03;44.06
68329;BME280;55182;56.864;60.554;2022-08-06T13:33:27;98911.03;;;26.97;43.44
68329;BME280;55182;56.864;60.554;2022-08-06T13:36:04;98921.97;;;26.93;44.08